« Back
NWS Peachtree City, Ga » Text Product » ATL Terminal Aerodrome Forecast


Printer-friendly Version
Current Version              Previous Versions:   1  2  3  4  5  6  7  8  9  

Terminal Aerodrome Forecast

861
FTUS42 KFFC 181700
TAFATL
TAF
KATL 181738Z 1818/1924 34004KT P6SM SCT045
     FM190500 02004KT P6SM SCT025
     FM191100 05008KT P6SM BKN008
     FM191400 08009KT P6SM SCT025
     FM191600 10011KT P6SM SCT040=



USA.gov is the U.S. government's official web portal to all federal, state and local government web resources and services.